createdAt,value
2018-02-25T00:00:08.256Z,0
2018-02-25T00:00:40.338Z,0
2018-02-25T00:01:12.391Z,0
2018-02-25T00:01:44.391Z,0
2018-02-25T00:02:16.386Z,0
2018-02-25T00:02:48.416Z,0
2018-02-25T00:03:20.464Z,0
2018-02-25T00:03:52.467Z,0
2018-02-25T00:04:24.478Z,0
2018-02-25T00:04:56.607Z,0
2018-02-25T00:05:28.648Z,0
2018-02-25T00:06:00.680Z,0
2018-02-25T00:06:32.707Z,0
2018-02-25T00:07:04.737Z,0
2018-02-25T00:07:36.739Z,0
2018-02-25T00:08:09.446Z,0
2018-02-25T00:08:41.445Z,0
2018-02-25T00:09:13.449Z,0
2018-02-25T00:09:45.452Z,0
2018-02-25T00:10:17.464Z,0
2018-02-25T00:10:49.460Z,0
2018-02-25T00:11:21.517Z,0
2018-02-25T00:11:53.531Z,0
2018-02-25T00:12:25.577Z,0
2018-02-25T00:12:57.605Z,0
2018-02-25T00:13:29.741Z,0
2018-02-25T00:14:01.748Z,0
2018-02-25T00:14:33.742Z,0
2018-02-25T00:15:05.721Z,0
2018-02-25T00:15:37.742Z,0
2018-02-25T00:16:09.807Z,0
2018-02-25T00:16:41.838Z,0
2018-02-25T00:17:13.873Z,0
2018-02-25T00:17:45.896Z,0
2018-02-25T00:18:17.924Z,0
2018-02-25T00:18:49.970Z,0
2018-02-25T00:19:22.006Z,0
2018-02-25T00:19:54.026Z,0
2018-02-25T00:20:26.049Z,0
2018-02-25T00:20:58.053Z,0
2018-02-25T00:21:30.066Z,0
2018-02-25T00:22:02.186Z,0
2018-02-25T00:22:34.204Z,0
2018-02-25T00:23:06.187Z,0
2018-02-25T00:23:38.319Z,0
2018-02-25T00:24:10.342Z,0
2018-02-25T00:24:42.344Z,0
2018-02-25T00:25:14.326Z,0
2018-02-25T00:25:46.376Z,0
2018-02-25T00:26:18.398Z,0
2018-02-25T00:26:50.439Z,0
2018-02-25T00:27:22.438Z,0
2018-02-25T00:27:54.440Z,0
2018-02-25T00:28:26.472Z,0
2018-02-25T00:28:58.518Z,0
2018-02-25T00:29:30.560Z,0
2018-02-25T00:30:02.589Z,0
2018-02-25T00:30:34.652Z,0
2018-02-25T00:31:06.665Z,0
2018-02-25T00:31:38.694Z,0
2018-02-25T00:32:10.718Z,0
2018-02-25T00:32:42.759Z,0
2018-02-25T00:33:14.774Z,0
2018-02-25T00:33:46.836Z,0
2018-02-25T00:34:18.901Z,0
2018-02-25T00:34:50.913Z,0
2018-02-25T00:35:23.107Z,0
2018-02-25T00:35:55.135Z,0
2018-02-25T00:36:27.152Z,0
2018-02-25T00:36:59.163Z,0
2018-02-25T00:37:31.211Z,0
2018-02-25T00:38:03.259Z,0
2018-02-25T00:38:35.271Z,0
2018-02-25T00:39:07.430Z,0
2018-02-25T00:39:39.406Z,0
2018-02-25T00:40:11.394Z,0
2018-02-25T00:40:43.472Z,0
2018-02-25T00:41:15.610Z,0
2018-02-25T00:41:47.686Z,0
2018-02-25T00:42:19.709Z,0
2018-02-25T00:42:51.794Z,0
2018-02-25T00:43:23.775Z,0
2018-02-25T00:43:55.857Z,0
2018-02-25T00:44:27.875Z,0
2018-02-25T00:44:59.885Z,0
2018-02-25T00:45:31.907Z,0
2018-02-25T00:46:03.892Z,0
2018-02-25T00:46:35.921Z,0
2018-02-25T00:47:08.574Z,0
2018-02-25T00:47:40.632Z,0
2018-02-25T00:48:12.623Z,0
2018-02-25T00:48:44.649Z,0
2018-02-25T00:49:16.719Z,0
2018-02-25T00:49:48.732Z,0
2018-02-25T00:50:20.794Z,0
2018-02-25T00:50:52.846Z,0
2018-02-25T00:51:24.899Z,0
2018-02-25T00:51:56.930Z,0
2018-02-25T00:52:28.942Z,0
2018-02-25T00:53:00.970Z,0
2018-02-25T00:53:32.969Z,0
2018-02-25T00:54:04.967Z,0
2018-02-25T00:54:36.986Z,0
2018-02-25T00:55:09.010Z,0
2018-02-25T00:55:41.057Z,0
2018-02-25T00:56:13.043Z,0
2018-02-25T00:56:45.086Z,0
2018-02-25T00:57:17.259Z,0
2018-02-25T00:57:49.319Z,0
2018-02-25T00:58:21.349Z,0
2018-02-25T00:58:53.385Z,0
2018-02-25T00:59:25.383Z,0
2018-02-25T00:59:57.416Z,0
2018-02-25T01:00:29.449Z,0
2018-02-25T01:01:01.514Z,0
2018-02-25T01:01:33.540Z,0
2018-02-25T01:02:05.572Z,0
2018-02-25T01:02:37.689Z,0
2018-02-25T01:03:09.688Z,0
2018-02-25T01:03:41.660Z,0
2018-02-25T01:04:13.674Z,0
2018-02-25T01:04:45.689Z,0
2018-02-25T01:05:17.709Z,0
2018-02-25T01:05:49.895Z,0
2018-02-25T01:06:21.934Z,0
2018-02-25T01:06:53.959Z,0
2018-02-25T01:07:26.001Z,0
2018-02-25T01:07:58.008Z,0
2018-02-25T01:08:30.017Z,0
2018-02-25T01:09:02.035Z,0
2018-02-25T01:09:34.048Z,0
2018-02-25T01:10:06.145Z,0
2018-02-25T01:10:38.124Z,0
2018-02-25T01:11:10.192Z,0
2018-02-25T01:11:42.262Z,0
2018-02-25T01:12:14.305Z,0
2018-02-25T01:12:46.321Z,0
2018-02-25T01:13:18.388Z,0
2018-02-25T01:13:50.434Z,0
2018-02-25T01:14:22.480Z,0
2018-02-25T01:14:54.486Z,0
2018-02-25T01:15:26.566Z,0
2018-02-25T01:15:58.593Z,0
2018-02-25T01:16:30.620Z,0
2018-02-25T01:17:02.652Z,0
2018-02-25T01:17:35.585Z,0
2018-02-25T01:18:07.614Z,0
2018-02-25T01:18:39.642Z,0
2018-02-25T01:19:11.654Z,0
2018-02-25T01:19:43.757Z,0
2018-02-25T01:20:15.742Z,0
2018-02-25T01:20:47.772Z,0
2018-02-25T01:21:19.809Z,0
2018-02-25T01:21:51.921Z,0
2018-02-25T01:22:24.040Z,0
2018-02-25T01:22:56.074Z,0
2018-02-25T01:23:28.171Z,0
2018-02-25T01:24:00.149Z,0
2018-02-25T01:24:32.210Z,0
2018-02-25T01:25:04.222Z,0
2018-02-25T01:25:36.264Z,0
2018-02-25T01:26:08.284Z,0
2018-02-25T01:26:40.329Z,0
2018-02-25T01:27:12.340Z,0
2018-02-25T01:27:44.380Z,0
2018-02-25T01:28:16.412Z,0
2018-02-25T01:28:48.426Z,0
2018-02-25T01:29:20.476Z,0
2018-02-25T01:29:52.517Z,0
2018-02-25T01:30:24.540Z,0
2018-02-25T01:30:56.588Z,0
2018-02-25T01:31:28.706Z,0
2018-02-25T01:32:00.703Z,0
2018-02-25T01:32:32.745Z,0
2018-02-25T01:33:04.782Z,0
2018-02-25T01:33:37.488Z,0
2018-02-25T01:34:09.529Z,0
2018-02-25T01:34:41.543Z,0
2018-02-25T01:35:13.573Z,0
2018-02-25T01:35:45.575Z,0
2018-02-25T01:36:18.304Z,0
2018-02-25T01:36:50.315Z,0
2018-02-25T01:37:22.325Z,0
2018-02-25T01:37:54.354Z,0
2018-02-25T01:38:26.501Z,0
2018-02-25T01:38:58.526Z,0
2018-02-25T01:39:30.530Z,0
2018-02-25T01:40:02.581Z,0
2018-02-25T01:40:34.578Z,0
2018-02-25T01:41:06.588Z,0
2018-02-25T01:41:38.651Z,0
2018-02-25T01:42:10.707Z,0
2018-02-25T01:42:42.748Z,0
2018-02-25T01:43:14.762Z,0
2018-02-25T01:43:46.812Z,0
2018-02-25T01:44:18.807Z,0
2018-02-25T01:44:50.957Z,0
2018-02-25T01:45:23.037Z,0
2018-02-25T01:45:55.086Z,0
2018-02-25T01:46:27.105Z,0
2018-02-25T01:46:59.150Z,0
2018-02-25T01:47:31.139Z,0
2018-02-25T01:48:03.168Z,0
2018-02-25T01:48:35.253Z,0
2018-02-25T01:49:07.271Z,0
2018-02-25T01:49:39.280Z,0
2018-02-25T01:50:11.312Z,0
2018-02-25T01:50:43.370Z,0
2018-02-25T01:51:15.432Z,0
2018-02-25T01:51:47.416Z,0
2018-02-25T01:52:19.430Z,0
2018-02-25T01:52:51.461Z,0
2018-02-25T01:53:23.600Z,0
2018-02-25T01:53:55.614Z,0
2018-02-25T01:54:28.098Z,0
2018-02-25T01:55:00.135Z,0
2018-02-25T01:55:32.154Z,0
2018-02-25T01:56:04.213Z,0
2018-02-25T01:56:36.227Z,0
2018-02-25T01:57:08.253Z,0
2018-02-25T01:57:40.277Z,0
2018-02-25T01:58:12.314Z,0
2018-02-25T01:58:44.414Z,0
2018-02-25T01:59:16.499Z,0
2018-02-25T01:59:48.607Z,0
2018-02-25T02:00:20.616Z,0
2018-02-25T02:00:52.615Z,0
2018-02-25T02:01:24.654Z,0
2018-02-25T02:01:56.694Z,0
2018-02-25T02:02:28.736Z,0
2018-02-25T02:03:00.767Z,0
2018-02-25T02:03:32.801Z,0
2018-02-25T02:04:04.827Z,0
2018-02-25T02:04:36.800Z,0
2018-02-25T02:05:09.497Z,0
2018-02-25T02:05:41.525Z,0
2018-02-25T02:06:13.578Z,0
2018-02-25T02:06:45.626Z,0
2018-02-25T02:07:17.615Z,0
2018-02-25T02:07:49.652Z,0
2018-02-25T02:08:21.662Z,0
2018-02-25T02:08:53.680Z,0
2018-02-25T02:09:25.669Z,0
2018-02-25T02:09:57.816Z,0
2018-02-25T02:10:29.906Z,0
2018-02-25T02:11:01.922Z,0
2018-02-25T02:11:33.943Z,0
2018-02-25T02:12:05.958Z,0
2018-02-25T02:12:37.975Z,0
2018-02-25T02:13:10.009Z,0
2018-02-25T02:13:42.165Z,0
2018-02-25T02:14:14.167Z,0
2018-02-25T02:14:46.176Z,0
2018-02-25T02:15:18.208Z,0
2018-02-25T02:15:51.088Z,0
2018-02-25T02:16:23.154Z,0
2018-02-25T02:16:55.193Z,0
2018-02-25T02:17:27.278Z,0
2018-02-25T02:17:59.304Z,0
2018-02-25T02:18:31.304Z,0
2018-02-25T02:19:03.349Z,0
2018-02-25T02:19:35.371Z,0
2018-02-25T02:20:07.366Z,0
2018-02-25T02:20:39.362Z,0
2018-02-25T02:21:11.393Z,0
2018-02-25T02:21:43.393Z,0
2018-02-25T02:22:15.414Z,0
2018-02-25T02:22:47.453Z,0
2018-02-25T02:23:19.542Z,0
2018-02-25T02:23:51.634Z,0
2018-02-25T02:24:23.667Z,0
2018-02-25T02:24:55.689Z,0
2018-02-25T02:25:27.720Z,0
2018-02-25T02:25:59.767Z,0
2018-02-25T02:26:31.785Z,0
2018-02-25T02:27:03.825Z,0
2018-02-25T02:27:35.854Z,0
2018-02-25T02:28:07.884Z,0
2018-02-25T02:28:39.914Z,0
2018-02-25T02:29:11.954Z,0
2018-02-25T02:29:44.012Z,0
2018-02-25T02:30:16.029Z,0
2018-02-25T02:30:48.210Z,0
2018-02-25T02:31:20.712Z,0
2018-02-25T02:31:52.719Z,0
2018-02-25T02:32:24.732Z,0
2018-02-25T02:32:56.798Z,0
2018-02-25T02:33:28.943Z,0
2018-02-25T02:34:00.929Z,0
2018-02-25T02:34:32.944Z,0
2018-02-25T02:35:04.997Z,0
2018-02-25T02:35:37.022Z,0
2018-02-25T02:36:09.064Z,0
2018-02-25T02:36:41.097Z,0
2018-02-25T02:37:13.145Z,0
2018-02-25T02:37:45.143Z,0
2018-02-25T02:38:17.185Z,0
2018-02-25T02:38:49.202Z,0
2018-02-25T02:39:21.226Z,0
2018-02-25T02:39:53.299Z,0
2018-02-25T02:40:25.320Z,0
2018-02-25T02:40:57.379Z,0
2018-02-25T02:41:29.396Z,0
2018-02-25T02:42:01.434Z,0
2018-02-25T02:42:33.472Z,0
2018-02-25T02:43:05.496Z,0
2018-02-25T02:43:37.522Z,0
2018-02-25T02:44:09.530Z,0
2018-02-25T02:44:41.565Z,0
2018-02-25T02:45:13.616Z,0
2018-02-25T02:45:45.637Z,0
2018-02-25T02:46:17.682Z,0
2018-02-25T02:46:49.717Z,0
2018-02-25T02:47:21.713Z,0
2018-02-25T02:47:53.778Z,0
2018-02-25T02:48:25.796Z,0
2018-02-25T02:48:57.797Z,0
2018-02-25T02:49:29.836Z,0
2018-02-25T02:50:01.862Z,0
2018-02-25T02:50:33.883Z,0
2018-02-25T02:51:05.949Z,0
2018-02-25T02:51:37.980Z,0
2018-02-25T02:52:10.034Z,0
2018-02-25T02:52:42.093Z,0
2018-02-25T02:53:14.156Z,0
2018-02-25T02:53:46.265Z,0
2018-02-25T02:54:18.289Z,0
2018-02-25T02:54:50.302Z,0
2018-02-25T02:55:22.304Z,0
2018-02-25T02:55:54.420Z,0
2018-02-25T02:56:26.446Z,0
2018-02-25T02:56:58.472Z,0
2018-02-25T02:57:30.569Z,0
2018-02-25T02:58:02.615Z,0
2018-02-25T02:58:34.620Z,0
2018-02-25T02:59:06.677Z,0
2018-02-25T02:59:38.708Z,0
2018-02-25T03:00:10.748Z,0
2018-02-25T03:00:42.748Z,0
2018-02-25T03:01:14.792Z,0
2018-02-25T03:01:46.853Z,0
2018-02-25T03:02:18.911Z,0
2018-02-25T03:02:51.048Z,0
2018-02-25T03:03:23.070Z,0
2018-02-25T03:03:55.113Z,0
2018-02-25T03:04:27.186Z,0
2018-02-25T03:04:59.213Z,0
2018-02-25T03:05:31.264Z,0
2018-02-25T03:06:03.291Z,0
2018-02-25T03:06:35.399Z,0
2018-02-25T03:07:07.408Z,0
2018-02-25T03:07:39.405Z,0
2018-02-25T03:08:11.420Z,0
2018-02-25T03:08:43.923Z,0
2018-02-25T03:09:15.914Z,0
2018-02-25T03:09:47.941Z,0
2018-02-25T03:10:19.965Z,0
2018-02-25T03:10:51.982Z,0
2018-02-25T03:11:24.001Z,0
2018-02-25T03:11:56.093Z,0
2018-02-25T03:12:28.097Z,0
2018-02-25T03:13:00.162Z,0
2018-02-25T03:13:32.239Z,0
2018-02-25T03:14:04.235Z,0
2018-02-25T03:14:36.227Z,0
2018-02-25T03:15:08.260Z,0
2018-02-25T03:15:41.127Z,0
2018-02-25T03:16:13.262Z,0
2018-02-25T03:16:45.381Z,0
2018-02-25T03:17:17.432Z,0
2018-02-25T03:17:49.450Z,0
2018-02-25T03:18:21.414Z,0
2018-02-25T03:18:53.429Z,0
2018-02-25T03:19:25.475Z,0
2018-02-25T03:19:57.449Z,0
2018-02-25T03:20:29.462Z,0
2018-02-25T03:21:01.480Z,0
2018-02-25T03:21:33.514Z,0
2018-02-25T03:22:05.554Z,0
2018-02-25T03:22:37.583Z,0
2018-02-25T03:23:09.627Z,0
2018-02-25T03:23:41.642Z,0
2018-02-25T03:24:13.698Z,0
2018-02-25T03:24:45.729Z,0
2018-02-25T03:25:17.748Z,0
2018-02-25T03:25:49.793Z,0
2018-02-25T03:26:21.814Z,0
2018-02-25T03:26:53.891Z,0
2018-02-25T03:27:25.934Z,0
2018-02-25T03:27:57.981Z,0
2018-02-25T03:28:30.003Z,0
2018-02-25T03:29:02.134Z,0
2018-02-25T03:29:34.221Z,0
2018-02-25T03:30:06.221Z,0
2018-02-25T03:30:38.315Z,0
2018-02-25T03:31:10.370Z,0
2018-02-25T03:31:42.502Z,0
2018-02-25T03:32:14.556Z,0
2018-02-25T03:32:46.598Z,0
2018-02-25T03:33:18.640Z,0
2018-02-25T03:33:50.747Z,0
2018-02-25T03:34:22.795Z,0
2018-02-25T03:34:54.840Z,0
2018-02-25T03:35:26.823Z,0
2018-02-25T03:35:58.798Z,0
2018-02-25T03:36:30.813Z,0
2018-02-25T03:37:02.844Z,0
2018-02-25T03:37:34.870Z,0
2018-02-25T03:38:06.874Z,0
2018-02-25T03:38:38.894Z,0
2018-02-25T03:39:10.887Z,0
2018-02-25T03:39:42.859Z,0
2018-02-25T03:40:14.855Z,0
2018-02-25T03:40:46.861Z,0
2018-02-25T03:41:18.969Z,0
2018-02-25T03:41:51.001Z,0
2018-02-25T03:42:23.028Z,0
2018-02-25T03:42:55.132Z,0
2018-02-25T03:43:27.178Z,0
2018-02-25T03:43:59.203Z,0
2018-02-25T03:44:31.233Z,0
2018-02-25T03:45:03.276Z,0
2018-02-25T03:45:35.249Z,0
2018-02-25T03:46:07.363Z,0
2018-02-25T03:46:39.378Z,0
2018-02-25T03:47:11.387Z,0
2018-02-25T03:47:43.417Z,0
2018-02-25T03:48:15.540Z,0
2018-02-25T03:48:47.508Z,0
2018-02-25T03:49:19.554Z,0
2018-02-25T03:49:51.582Z,0
2018-02-25T03:50:23.601Z,0
2018-02-25T03:50:55.632Z,0
2018-02-25T03:51:27.683Z,0
2018-02-25T03:51:59.716Z,0
2018-02-25T03:52:31.772Z,0
2018-02-25T03:53:03.809Z,0
2018-02-25T03:53:35.853Z,0
2018-02-25T03:54:07.951Z,0
2018-02-25T03:54:39.939Z,0
2018-02-25T03:55:11.961Z,0
2018-02-25T03:55:43.982Z,0
2018-02-25T03:56:15.997Z,0
2018-02-25T03:56:48.017Z,0
2018-02-25T03:57:20.064Z,0
2018-02-25T03:57:52.034Z,0
2018-02-25T03:58:23.982Z,0
2018-02-25T03:58:55.975Z,0
2018-02-25T03:59:28.009Z,0
2018-02-25T04:00:00.066Z,0
2018-02-25T04:00:32.081Z,0
2018-02-25T04:01:04.120Z,0
2018-02-25T04:01:36.152Z,0
2018-02-25T04:02:08.169Z,0
2018-02-25T04:02:40.180Z,0
2018-02-25T04:03:12.174Z,0
2018-02-25T04:03:44.180Z,0
2018-02-25T04:04:16.194Z,0
2018-02-25T04:04:48.196Z,0
2018-02-25T04:05:20.201Z,0
2018-02-25T04:05:52.300Z,0
2018-02-25T04:06:24.366Z,0
2018-02-25T04:06:56.505Z,0
2018-02-25T04:07:28.499Z,0
2018-02-25T04:08:00.500Z,0
2018-02-25T04:08:32.549Z,0
2018-02-25T04:09:04.567Z,0
2018-02-25T04:09:36.613Z,0
2018-02-25T04:10:08.658Z,0
2018-02-25T04:10:40.702Z,0
2018-02-25T04:11:12.740Z,0
2018-02-25T04:11:44.778Z,0
2018-02-25T04:12:16.842Z,0
2018-02-25T04:12:48.814Z,0
2018-02-25T04:13:20.824Z,0
2018-02-25T04:13:52.819Z,0
2018-02-25T04:14:24.822Z,0
2018-02-25T04:14:56.967Z,0
2018-02-25T04:15:29.067Z,0
2018-02-25T04:16:01.177Z,0
2018-02-25T04:16:33.173Z,0
2018-02-25T04:17:05.185Z,0
2018-02-25T04:17:37.226Z,0
2018-02-25T04:18:09.253Z,0
2018-02-25T04:18:41.310Z,0
2018-02-25T04:19:13.982Z,0
2018-02-25T04:19:45.999Z,0
2018-02-25T04:20:18.029Z,0
2018-02-25T04:20:50.051Z,0
2018-02-25T04:21:22.159Z,0
2018-02-25T04:21:54.223Z,0
2018-02-25T04:22:26.259Z,0
2018-02-25T04:22:58.313Z,0
2018-02-25T04:23:30.437Z,0
2018-02-25T04:24:02.502Z,0
2018-02-25T04:24:34.493Z,0
2018-02-25T04:25:06.546Z,0
2018-02-25T04:25:38.569Z,0
2018-02-25T04:26:10.576Z,0
2018-02-25T04:26:42.613Z,0
2018-02-25T04:27:14.731Z,0
2018-02-25T04:27:46.745Z,0
2018-02-25T04:28:18.783Z,0
2018-02-25T04:28:50.844Z,0
2018-02-25T04:29:22.875Z,0
2018-02-25T04:29:54.934Z,0
2018-02-25T04:30:26.939Z,0
2018-02-25T04:30:58.950Z,0
2018-02-25T04:31:30.992Z,0
2018-02-25T04:32:03.002Z,0
2018-02-25T04:32:35.029Z,0
2018-02-25T04:33:07.063Z,0
2018-02-25T04:33:39.096Z,0
2018-02-25T04:34:11.104Z,0
2018-02-25T04:34:43.132Z,0
2018-02-25T04:35:15.151Z,0
2018-02-25T04:35:47.286Z,0
2018-02-25T04:36:19.303Z,0
2018-02-25T04:36:51.316Z,0
2018-02-25T04:37:23.369Z,0
2018-02-25T04:37:55.423Z,0
2018-02-25T04:38:27.464Z,0
2018-02-25T04:38:59.473Z,0
2018-02-25T04:39:31.547Z,0
2018-02-25T04:40:03.588Z,0
2018-02-25T04:40:35.630Z,0
2018-02-25T04:41:07.797Z,0
2018-02-25T04:41:39.874Z,0
2018-02-25T04:42:11.923Z,0
2018-02-25T04:42:43.937Z,0
2018-02-25T04:43:15.960Z,0
2018-02-25T04:43:47.979Z,0
2018-02-25T04:44:19.970Z,0
2018-02-25T04:44:52.016Z,0
2018-02-25T04:45:24.023Z,0
2018-02-25T04:45:56.076Z,0
2018-02-25T04:46:28.140Z,0
2018-02-25T04:47:00.137Z,0
2018-02-25T04:47:32.197Z,0
2018-02-25T04:48:04.207Z,0
2018-02-25T04:48:36.247Z,0
2018-02-25T04:49:08.264Z,0
2018-02-25T04:49:40.293Z,0
2018-02-25T04:50:12.334Z,0
2018-02-25T04:50:44.369Z,0
2018-02-25T04:51:16.431Z,0
2018-02-25T04:51:48.483Z,0
2018-02-25T04:52:20.604Z,0
2018-02-25T04:52:52.662Z,0
2018-02-25T04:53:24.658Z,0
2018-02-25T04:53:56.661Z,0
2018-02-25T04:54:28.684Z,0
2018-02-25T04:55:00.735Z,0
2018-02-25T04:55:32.763Z,0
2018-02-25T04:56:04.845Z,0
2018-02-25T04:56:36.834Z,0
2018-02-25T04:57:08.851Z,0
2018-02-25T04:57:40.870Z,0
2018-02-25T04:58:12.940Z,0
2018-02-25T04:58:44.999Z,0
2018-02-25T04:59:17.023Z,0
2018-02-25T04:59:49.056Z,0
2018-02-25T05:00:21.074Z,0
2018-02-25T05:00:53.123Z,0
2018-02-25T05:01:25.154Z,0
2018-02-25T05:01:57.187Z,0
2018-02-25T05:02:29.180Z,0
2018-02-25T05:03:01.189Z,0
2018-02-25T05:03:33.182Z,0
2018-02-25T05:04:05.213Z,0
2018-02-25T05:04:37.247Z,0
2018-02-25T05:05:09.313Z,0
2018-02-25T05:05:41.305Z,0
2018-02-25T05:06:13.349Z,0
2018-02-25T05:06:45.335Z,0
2018-02-25T05:07:17.530Z,0
2018-02-25T05:07:49.581Z,0
2018-02-25T05:08:21.596Z,0
2018-02-25T05:08:53.662Z,0
2018-02-25T05:09:25.700Z,0
2018-02-25T05:09:57.717Z,0
2018-02-25T05:10:29.724Z,0
2018-02-25T05:11:01.824Z,0
2018-02-25T05:11:33.950Z,0
2018-02-25T05:12:05.977Z,0
2018-02-25T05:12:38.012Z,0
2018-02-25T05:13:10.021Z,0
2018-02-25T05:13:42.221Z,0
2018-02-25T05:14:14.272Z,0
2018-02-25T05:14:46.307Z,0
2018-02-25T05:15:18.321Z,0
2018-02-25T05:15:50.384Z,0
2018-02-25T05:16:22.405Z,0
2018-02-25T05:16:54.430Z,0
2018-02-25T05:17:26.463Z,0
2018-02-25T05:17:58.531Z,0
2018-02-25T05:18:30.564Z,0
2018-02-25T05:19:02.608Z,0
2018-02-25T05:19:34.693Z,0
2018-02-25T05:20:06.786Z,0
2018-02-25T05:20:38.808Z,0
2018-02-25T05:21:10.817Z,0
2018-02-25T05:21:42.829Z,0
2018-02-25T05:22:14.852Z,0
2018-02-25T05:22:46.949Z,0
2018-02-25T05:23:18.965Z,0
2018-02-25T05:23:51.557Z,0
2018-02-25T05:24:23.584Z,0
2018-02-25T05:24:55.727Z,0
2018-02-25T05:25:27.759Z,0
2018-02-25T05:25:59.767Z,0
2018-02-25T05:26:31.768Z,0
2018-02-25T05:27:03.802Z,0
2018-02-25T05:27:35.837Z,0
2018-02-25T05:28:07.845Z,0
2018-02-25T05:28:39.906Z,0
2018-02-25T05:29:11.913Z,0
2018-02-25T05:29:44.018Z,0
2018-02-25T05:30:16.035Z,0
2018-02-25T05:30:48.118Z,0
2018-02-25T05:31:20.101Z,0
2018-02-25T05:31:52.189Z,0
2018-02-25T05:32:24.253Z,0
2018-02-25T05:32:56.263Z,0
2018-02-25T05:33:28.255Z,0
2018-02-25T05:34:00.422Z,0
2018-02-25T05:34:32.458Z,0
2018-02-25T05:35:04.472Z,0
2018-02-25T05:35:36.500Z,0
2018-02-25T05:36:08.591Z,0
2018-02-25T05:36:40.678Z,0
2018-02-25T05:37:12.797Z,0
2018-02-25T05:37:44.829Z,0
2018-02-25T05:38:16.840Z,0
2018-02-25T05:38:48.890Z,0
2018-02-25T05:39:20.947Z,0
2018-02-25T05:39:52.941Z,0
2018-02-25T05:40:24.949Z,0
2018-02-25T05:40:56.995Z,0
2018-02-25T05:41:29.038Z,0
2018-02-25T05:42:01.027Z,0
2018-02-25T05:42:33.063Z,0
2018-02-25T05:43:05.089Z,0
2018-02-25T05:43:37.089Z,0
2018-02-25T05:44:09.114Z,0
2018-02-25T05:44:41.146Z,0
2018-02-25T05:45:13.161Z,0
2018-02-25T05:45:45.194Z,0
2018-02-25T05:46:17.184Z,0
2018-02-25T05:46:49.216Z,0
2018-02-25T05:47:21.268Z,0
2018-02-25T05:47:53.331Z,0
2018-02-25T05:48:25.312Z,0
2018-02-25T05:48:57.343Z,0
2018-02-25T05:49:29.380Z,0
2018-02-25T05:50:01.534Z,0
2018-02-25T05:50:33.552Z,0
2018-02-25T05:51:05.585Z,0
2018-02-25T05:51:37.762Z,0
2018-02-25T05:52:09.809Z,0
2018-02-25T05:52:41.856Z,0
2018-02-25T05:53:13.897Z,0
2018-02-25T05:53:45.924Z,0
2018-02-25T05:54:18.095Z,0
2018-02-25T05:54:50.165Z,0
2018-02-25T05:55:22.138Z,0
2018-02-25T05:55:54.131Z,4
2018-02-25T05:56:26.263Z,4
2018-02-25T05:56:58.283Z,4
2018-02-25T05:57:30.340Z,0
2018-02-25T05:58:02.390Z,0
2018-02-25T05:58:34.363Z,0
2018-02-25T05:59:06.396Z,4
2018-02-25T05:59:38.393Z,4
2018-02-25T06:00:10.395Z,4
2018-02-25T06:00:42.412Z,0
2018-02-25T06:01:14.411Z,4
2018-02-25T06:01:46.494Z,4
2018-02-25T06:02:18.537Z,4
2018-02-25T06:02:50.567Z,4
2018-02-25T06:03:22.566Z,4
2018-02-25T06:03:54.521Z,8
2018-02-25T06:04:26.583Z,4
2018-02-25T06:04:58.625Z,8
2018-02-25T06:05:30.658Z,8
2018-02-25T06:06:02.695Z,8
2018-02-25T06:06:34.805Z,12
2018-02-25T06:07:06.872Z,8
2018-02-25T06:07:38.896Z,12
2018-02-25T06:08:10.976Z,12
2018-02-25T06:08:43.125Z,12
2018-02-25T06:09:15.181Z,12
2018-02-25T06:09:48.120Z,12
2018-02-25T06:10:20.125Z,16
2018-02-25T06:10:52.207Z,16
2018-02-25T06:11:24.205Z,16
2018-02-25T06:11:56.198Z,20
2018-02-25T06:12:28.250Z,20
2018-02-25T06:13:00.267Z,24
2018-02-25T06:13:32.283Z,24
2018-02-25T06:14:04.433Z,24
2018-02-25T06:14:36.530Z,28
2018-02-25T06:15:08.550Z,28
2018-02-25T06:15:40.589Z,32
2018-02-25T06:16:12.612Z,32
2018-02-25T06:16:44.600Z,36
2018-02-25T06:17:16.646Z,40
2018-02-25T06:17:48.770Z,40
2018-02-25T06:18:20.785Z,44
2018-02-25T06:18:52.803Z,48
2018-02-25T06:19:24.977Z,52
2018-02-25T06:19:57.006Z,52
2018-02-25T06:20:29.055Z,56
2018-02-25T06:21:01.088Z,60
2018-02-25T06:21:33.255Z,64
2018-02-25T06:22:05.396Z,64
2018-02-25T06:22:37.407Z,72
2018-02-25T06:23:09.448Z,72
2018-02-25T06:23:41.509Z,76
2018-02-25T06:24:14.512Z,80
2018-02-25T06:24:46.500Z,84
2018-02-25T06:25:18.503Z,88
2018-02-25T06:25:50.567Z,96
2018-02-25T06:26:22.752Z,96
2018-02-25T06:26:54.728Z,100
2018-02-25T06:27:26.752Z,108
2018-02-25T06:27:58.758Z,112
2018-02-25T06:28:30.746Z,112
2018-02-25T06:29:02.764Z,120
2018-02-25T06:29:34.800Z,124
2018-02-25T06:30:06.807Z,128
2018-02-25T06:30:38.836Z,136
2018-02-25T06:31:10.874Z,140
2018-02-25T06:31:42.864Z,148
2018-02-25T06:32:14.853Z,152
2018-02-25T06:32:46.902Z,156
2018-02-25T06:33:18.945Z,164
2018-02-25T06:33:50.972Z,168
2018-02-25T06:34:23.009Z,172
2018-02-25T06:34:55.595Z,180
2018-02-25T06:35:27.571Z,184
2018-02-25T06:35:59.586Z,192
2018-02-25T06:36:31.596Z,196
2018-02-25T06:37:03.731Z,200
2018-02-25T06:37:35.829Z,208
2018-02-25T06:38:07.849Z,212
2018-02-25T06:38:39.889Z,220
2018-02-25T06:39:11.897Z,224
2018-02-25T06:39:43.934Z,232
2018-02-25T06:40:15.981Z,236
2018-02-25T06:40:48.015Z,240
2018-02-25T06:41:19.993Z,248
2018-02-25T06:41:52.024Z,252
2018-02-25T06:42:24.113Z,260
2018-02-25T06:42:56.254Z,264
2018-02-25T06:43:28.298Z,272
2018-02-25T06:44:00.349Z,280
2018-02-25T06:44:32.359Z,280
2018-02-25T06:45:04.395Z,288
2018-02-25T06:45:36.547Z,292
2018-02-25T06:46:09.189Z,300
2018-02-25T06:46:41.206Z,304
2018-02-25T06:47:13.283Z,312
2018-02-25T06:47:45.303Z,320
2018-02-25T06:48:17.366Z,320
2018-02-25T06:48:49.395Z,328
2018-02-25T06:49:21.429Z,332
2018-02-25T06:49:54.278Z,340
2018-02-25T06:50:26.331Z,348
2018-02-25T06:50:58.360Z,352
2018-02-25T06:51:30.434Z,360
2018-02-25T06:52:02.456Z,360
2018-02-25T06:52:34.466Z,368
2018-02-25T06:53:06.543Z,376
2018-02-25T06:53:38.536Z,380
2018-02-25T06:54:10.591Z,384
2018-02-25T06:54:42.644Z,392
2018-02-25T06:55:14.676Z,396
2018-02-25T06:55:46.687Z,400
2018-02-25T06:56:18.850Z,408
2018-02-25T06:56:50.876Z,412
2018-02-25T06:57:22.851Z,416
2018-02-25T06:57:54.833Z,424
2018-02-25T06:58:26.872Z,428
2018-02-25T06:58:58.898Z,436
2018-02-25T06:59:30.959Z,436
2018-02-25T07:00:03.609Z,444
2018-02-25T07:00:35.625Z,448
2018-02-25T07:01:07.644Z,452
2018-02-25T07:01:39.668Z,460
2018-02-25T07:02:11.663Z,464
2018-02-25T07:02:43.675Z,468
2018-02-25T07:03:15.675Z,472
2018-02-25T07:03:47.673Z,480
2018-02-25T07:04:19.703Z,484
2018-02-25T07:04:52.288Z,488
2018-02-25T07:05:24.459Z,496
2018-02-25T07:05:57.180Z,500
2018-02-25T07:06:29.182Z,504
2018-02-25T07:07:01.203Z,508
2018-02-25T07:07:33.229Z,516
2018-02-25T07:08:05.264Z,524
2018-02-25T07:08:37.270Z,536
2018-02-25T07:09:09.304Z,540
2018-02-25T07:09:41.308Z,552
2018-02-25T07:10:13.372Z,560
2018-02-25T07:10:45.482Z,572
2018-02-25T07:11:17.538Z,580
2018-02-25T07:11:49.537Z,592
2018-02-25T07:12:21.520Z,608
2018-02-25T07:12:54.267Z,624
2018-02-25T07:13:26.276Z,656
2018-02-25T07:13:58.287Z,708
2018-02-25T07:14:30.330Z,776
2018-02-25T07:15:02.448Z,828
2018-02-25T07:15:34.429Z,864
2018-02-25T07:16:06.423Z,880
2018-02-25T07:16:38.432Z,888
2018-02-25T07:17:11.194Z,888
2018-02-25T07:17:44.024Z,896
2018-02-25T07:18:16.052Z,916
2018-02-25T07:18:48.105Z,936
2018-02-25T07:19:20.207Z,960
2018-02-25T07:19:52.216Z,976
2018-02-25T07:20:24.262Z,980
2018-02-25T07:20:56.250Z,980
2018-02-25T07:21:28.267Z,972
2018-02-25T07:22:00.292Z,984
2018-02-25T07:22:32.311Z,976
2018-02-25T07:23:04.337Z,948
2018-02-25T07:23:36.373Z,928
2018-02-25T07:24:08.394Z,920
2018-02-25T07:24:40.424Z,932
2018-02-25T07:25:12.424Z,940
2018-02-25T07:25:45.174Z,940
2018-02-25T07:26:17.332Z,932
2018-02-25T07:26:49.560Z,932
2018-02-25T07:27:21.645Z,948
2018-02-25T07:27:53.657Z,960
2018-02-25T07:28:25.684Z,980
2018-02-25T07:28:57.781Z,1008
2018-02-25T07:29:29.808Z,1044
2018-02-25T07:30:01.840Z,1092
2018-02-25T07:30:33.866Z,1140
2018-02-25T07:31:05.866Z,1168
2018-02-25T07:31:37.882Z,1184
2018-02-25T07:32:10.411Z,1200
2018-02-25T07:32:42.445Z,1228
2018-02-25T07:33:14.530Z,1268
2018-02-25T07:33:46.539Z,1332
2018-02-25T07:34:18.580Z,1392
2018-02-25T07:34:50.622Z,1432
2018-02-25T07:35:22.699Z,1440
2018-02-25T07:35:54.664Z,1444
2018-02-25T07:36:26.686Z,1436
2018-02-25T07:36:58.668Z,1440
2018-02-25T07:37:30.674Z,1452
2018-02-25T07:38:02.703Z,1472
2018-02-25T07:38:34.732Z,1476
2018-02-25T07:39:06.662Z,1392
2018-02-25T07:39:38.747Z,1384
2018-02-25T07:40:10.750Z,1444
2018-02-25T07:40:42.807Z,1532
2018-02-25T07:41:14.839Z,1584
2018-02-25T07:41:46.882Z,1600
2018-02-25T07:42:19.064Z,1596
2018-02-25T07:42:51.105Z,1612
2018-02-25T07:43:23.217Z,1636
2018-02-25T07:43:55.214Z,1664
2018-02-25T07:44:27.276Z,1720
2018-02-25T07:44:59.294Z,1812
2018-02-25T07:45:31.359Z,1832
2018-02-25T07:46:03.396Z,1924
2018-02-25T07:46:35.443Z,1988